sensor_id;sensor_type;location;lat;lon;timestamp;pressure;altitude;pressure_sealevel;temperature
70533;BMP180;58088;51.186;17.130;2022-12-18T00:01:26;101890.00;;;-2.20
70533;BMP180;58088;51.186;17.130;2022-12-18T00:03:54;101890.80;;;-2.20
70533;BMP180;58088;51.186;17.130;2022-12-18T00:06:23;101890.60;;;-2.20
70533;BMP180;58088;51.186;17.130;2022-12-18T00:08:49;101899.20;;;-2.20
70533;BMP180;58088;51.186;17.130;2022-12-18T00:11:19;101896.00;;;-2.20
70533;BMP180;58088;51.186;17.130;2022-12-18T00:13:47;101899.00;;;-2.20
70533;BMP180;58088;51.186;17.130;2022-12-18T00:16:17;101900.80;;;-2.20
70533;BMP180;58088;51.186;17.130;2022-12-18T00:18:47;101898.80;;;-2.20
70533;BMP180;58088;51.186;17.130;2022-12-18T00:21:14;101898.00;;;-2.20
70533;BMP180;58088;51.186;17.130;2022-12-18T00:23:43;101906.20;;;-2.20
70533;BMP180;58088;51.186;17.130;2022-12-18T00:26:17;101910.80;;;-2.20
70533;BMP180;58088;51.186;17.130;2022-12-18T00:28:45;101911.60;;;-2.20
70533;BMP180;58088;51.186;17.130;2022-12-18T00:31:16;101907.00;;;-2.10
70533;BMP180;58088;51.186;17.130;2022-12-18T00:33:44;101908.40;;;-2.10
70533;BMP180;58088;51.186;17.130;2022-12-18T00:36:18;101914.20;;;-2.10
70533;BMP180;58088;51.186;17.130;2022-12-18T00:38:46;101913.20;;;-2.10
70533;BMP180;58088;51.186;17.130;2022-12-18T00:41:15;101913.20;;;-2.10
70533;BMP180;58088;51.186;17.130;2022-12-18T00:44:02;101915.00;;;-2.10
70533;BMP180;58088;51.186;17.130;2022-12-18T00:46:30;101924.40;;;-2.00
70533;BMP180;58088;51.186;17.130;2022-12-18T00:48:57;101926.80;;;-2.00
70533;BMP180;58088;51.186;17.130;2022-12-18T00:51:24;101925.20;;;-2.00
70533;BMP180;58088;51.186;17.130;2022-12-18T00:53:51;101930.40;;;-2.00
70533;BMP180;58088;51.186;17.130;2022-12-18T00:56:17;101930.00;;;-2.00
70533;BMP180;58088;51.186;17.130;2022-12-18T00:58:47;101942.80;;;-1.96
70533;BMP180;58088;51.186;17.130;2022-12-18T01:01:14;101945.00;;;-1.90
70533;BMP180;58088;51.186;17.130;2022-12-18T01:03:40;101946.80;;;-1.92
70533;BMP180;58088;51.186;17.130;2022-12-18T01:06:10;101957.60;;;-2.00
70533;BMP180;58088;51.186;17.130;2022-12-18T01:08:38;101960.00;;;-2.00
70533;BMP180;58088;51.186;17.130;2022-12-18T01:11:10;101971.00;;;-2.00
70533;BMP180;58088;51.186;17.130;2022-12-18T01:13:38;101966.20;;;-2.00
70533;BMP180;58088;51.186;17.130;2022-12-18T01:16:05;101967.80;;;-2.00
70533;BMP180;58088;51.186;17.130;2022-12-18T01:18:35;101968.60;;;-2.00
70533;BMP180;58088;51.186;17.130;2022-12-18T01:21:10;101970.60;;;-1.94
70533;BMP180;58088;51.186;17.130;2022-12-18T01:23:37;101983.80;;;-1.90
70533;BMP180;58088;51.186;17.130;2022-12-18T01:26:13;101981.40;;;-1.82
70533;BMP180;58088;51.186;17.130;2022-12-18T01:28:40;101981.00;;;-1.80
70533;BMP180;58088;51.186;17.130;2022-12-18T01:31:18;101982.20;;;-1.80
70533;BMP180;58088;51.186;17.130;2022-12-18T01:33:51;101984.80;;;-1.80
70533;BMP180;58088;51.186;17.130;2022-12-18T01:36:27;101992.00;;;-1.80
70533;BMP180;58088;51.186;17.130;2022-12-18T01:38:54;101984.00;;;-1.80
70533;BMP180;58088;51.186;17.130;2022-12-18T01:41:29;101990.80;;;-1.80
70533;BMP180;58088;51.186;17.130;2022-12-18T01:47:37;101991.40;;;-1.84
70533;BMP180;58088;51.186;17.130;2022-12-18T01:50:20;101995.00;;;-1.90
70533;BMP180;58088;51.186;17.130;2022-12-18T01:52:51;101997.20;;;-1.90
70533;BMP180;58088;51.186;17.130;2022-12-18T01:55:22;102002.00;;;-1.80
70533;BMP180;58088;51.186;17.130;2022-12-18T01:57:54;101999.40;;;-1.80
70533;BMP180;58088;51.186;17.130;2022-12-18T02:00:23;101999.20;;;-1.80
70533;BMP180;58088;51.186;17.130;2022-12-18T02:03:09;102006.80;;;-1.70
70533;BMP180;58088;51.186;17.130;2022-12-18T02:08:41;101999.00;;;-1.70
70533;BMP180;58088;51.186;17.130;2022-12-18T02:11:48;102002.80;;;-1.70
70533;BMP180;58088;51.186;17.130;2022-12-18T02:14:59;102001.00;;;-1.66
70533;BMP180;58088;51.186;17.130;2022-12-18T02:17:52;102003.80;;;-1.70
70533;BMP180;58088;51.186;17.130;2022-12-18T02:20:45;102009.60;;;-1.70
70533;BMP180;58088;51.186;17.130;2022-12-18T02:26:37;102007.00;;;-1.62
70533;BMP180;58088;51.186;17.130;2022-12-18T02:29:17;102012.60;;;-1.60
70533;BMP180;58088;51.186;17.130;2022-12-18T02:31:52;102012.00;;;-1.60
70533;BMP180;58088;51.186;17.130;2022-12-18T02:34:24;102014.00;;;-1.64
70533;BMP180;58088;51.186;17.130;2022-12-18T02:36:54;102018.40;;;-1.60
70533;BMP180;58088;51.186;17.130;2022-12-18T02:39:23;102022.40;;;-1.60
70533;BMP180;58088;51.186;17.130;2022-12-18T02:41:59;102021.40;;;-1.54
70533;BMP180;58088;51.186;17.130;2022-12-18T02:44:27;102024.20;;;-1.60
70533;BMP180;58088;51.186;17.130;2022-12-18T02:46:54;102021.40;;;-1.60
70533;BMP180;58088;51.186;17.130;2022-12-18T02:50:18;102022.00;;;-1.62
70533;BMP180;58088;51.186;17.130;2022-12-18T02:53:24;102019.80;;;-1.60
70533;BMP180;58088;51.186;17.130;2022-12-18T02:58:56;102028.80;;;-1.60
70533;BMP180;58088;51.186;17.130;2022-12-18T03:04:52;102025.20;;;-1.50
70533;BMP180;58088;51.186;17.130;2022-12-18T03:07:35;102021.60;;;-1.50
70533;BMP180;58088;51.186;17.130;2022-12-18T03:10:09;102021.60;;;-1.48
70533;BMP180;58088;51.186;17.130;2022-12-18T03:12:50;102029.00;;;-1.50
70533;BMP180;58088;51.186;17.130;2022-12-18T03:15:28;102029.40;;;-1.50
70533;BMP180;58088;51.186;17.130;2022-12-18T03:18:20;102034.00;;;-1.50
70533;BMP180;58088;51.186;17.130;2022-12-18T03:20:51;102034.80;;;-1.40
70533;BMP180;58088;51.186;17.130;2022-12-18T03:23:28;102038.20;;;-1.40
70533;BMP180;58088;51.186;17.130;2022-12-18T03:26:01;102040.20;;;-1.50
70533;BMP180;58088;51.186;17.130;2022-12-18T03:28:34;102041.20;;;-1.50
70533;BMP180;58088;51.186;17.130;2022-12-18T03:31:05;102047.40;;;-1.50
70533;BMP180;58088;51.186;17.130;2022-12-18T03:33:47;102049.40;;;-1.44
70533;BMP180;58088;51.186;17.130;2022-12-18T03:36:17;102053.00;;;-1.40
70533;BMP180;58088;51.186;17.130;2022-12-18T03:38:43;102056.20;;;-1.40
70533;BMP180;58088;51.186;17.130;2022-12-18T03:41:43;102050.80;;;-1.40
70533;BMP180;58088;51.186;17.130;2022-12-18T03:47:20;102045.60;;;-1.40
70533;BMP180;58088;51.186;17.130;2022-12-18T03:55:34;102050.20;;;-1.50
70533;BMP180;58088;51.186;17.130;2022-12-18T03:58:06;102055.00;;;-1.40
70533;BMP180;58088;51.186;17.130;2022-12-18T04:00:43;102049.60;;;-1.38
70533;BMP180;58088;51.186;17.130;2022-12-18T04:03:12;102055.40;;;-1.30
70533;BMP180;58088;51.186;17.130;2022-12-18T04:05:45;102061.40;;;-1.28
70533;BMP180;58088;51.186;17.130;2022-12-18T04:08:14;102063.20;;;-1.20
70533;BMP180;58088;51.186;17.130;2022-12-18T04:10:43;102074.20;;;-1.30
70533;BMP180;58088;51.186;17.130;2022-12-18T04:13:10;102074.20;;;-1.38
70533;BMP180;58088;51.186;17.130;2022-12-18T04:15:37;102071.80;;;-1.30
70533;BMP180;58088;51.186;17.130;2022-12-18T04:18:04;102078.60;;;-1.30
70533;BMP180;58088;51.186;17.130;2022-12-18T04:20:37;102073.20;;;-1.30
70533;BMP180;58088;51.186;17.130;2022-12-18T04:23:03;102077.20;;;-1.22
70533;BMP180;58088;51.186;17.130;2022-12-18T04:25:29;102078.60;;;-1.28
70533;BMP180;58088;51.186;17.130;2022-12-18T04:28:06;102086.20;;;-1.26
70533;BMP180;58088;51.186;17.130;2022-12-18T04:30:32;102088.40;;;-1.30
70533;BMP180;58088;51.186;17.130;2022-12-18T04:32:58;102089.60;;;-1.30
70533;BMP180;58088;51.186;17.130;2022-12-18T04:35:25;102087.20;;;-1.30
70533;BMP180;58088;51.186;17.130;2022-12-18T04:37:51;102094.20;;;-1.22
70533;BMP180;58088;51.186;17.130;2022-12-18T04:40:17;102094.20;;;-1.20
70533;BMP180;58088;51.186;17.130;2022-12-18T04:42:45;102101.20;;;-1.20
70533;BMP180;58088;51.186;17.130;2022-12-18T04:45:11;102107.40;;;-1.20
70533;BMP180;58088;51.186;17.130;2022-12-18T04:47:38;102107.60;;;-1.20
70533;BMP180;58088;51.186;17.130;2022-12-18T04:50:05;102119.40;;;-1.20
70533;BMP180;58088;51.186;17.130;2022-12-18T04:52:31;102116.20;;;-1.20
70533;BMP180;58088;51.186;17.130;2022-12-18T04:54:57;102126.20;;;-1.10
70533;BMP180;58088;51.186;17.130;2022-12-18T04:57:24;102125.00;;;-1.10
70533;BMP180;58088;51.186;17.130;2022-12-18T04:59:50;102130.60;;;-1.10
70533;BMP180;58088;51.186;17.130;2022-12-18T05:02:16;102123.80;;;-1.10
70533;BMP180;58088;51.186;17.130;2022-12-18T05:04:42;102133.60;;;-1.10
70533;BMP180;58088;51.186;17.130;2022-12-18T05:07:09;102129.20;;;-1.06
70533;BMP180;58088;51.186;17.130;2022-12-18T05:09:36;102124.40;;;-1.10
70533;BMP180;58088;51.186;17.130;2022-12-18T05:12:02;102133.80;;;-1.10
70533;BMP180;58088;51.186;17.130;2022-12-18T05:14:29;102124.40;;;-1.20
70533;BMP180;58088;51.186;17.130;2022-12-18T05:16:55;102135.00;;;-1.20
70533;BMP180;58088;51.186;17.130;2022-12-18T05:19:21;102129.60;;;-1.20
70533;BMP180;58088;51.186;17.130;2022-12-18T05:21:47;102122.80;;;-1.20
70533;BMP180;58088;51.186;17.130;2022-12-18T05:24:14;102127.20;;;-1.20
70533;BMP180;58088;51.186;17.130;2022-12-18T05:26:40;102135.20;;;-1.16
70533;BMP180;58088;51.186;17.130;2022-12-18T05:29:06;102132.40;;;-1.10
70533;BMP180;58088;51.186;17.130;2022-12-18T05:31:32;102134.60;;;-1.10
70533;BMP180;58088;51.186;17.130;2022-12-18T05:33:58;102130.40;;;-1.12
70533;BMP180;58088;51.186;17.130;2022-12-18T05:36:25;102142.60;;;-1.10
70533;BMP180;58088;51.186;17.130;2022-12-18T05:38:51;102138.60;;;-1.10
70533;BMP180;58088;51.186;17.130;2022-12-18T05:41:17;102139.80;;;-1.10
70533;BMP180;58088;51.186;17.130;2022-12-18T05:43:44;102144.40;;;-1.10
70533;BMP180;58088;51.186;17.130;2022-12-18T05:46:16;102145.80;;;-1.10
70533;BMP180;58088;51.186;17.130;2022-12-18T05:48:44;102144.80;;;-1.10
70533;BMP180;58088;51.186;17.130;2022-12-18T05:51:15;102146.80;;;-1.10
70533;BMP180;58088;51.186;17.130;2022-12-18T05:53:42;102154.00;;;-1.10
70533;BMP180;58088;51.186;17.130;2022-12-18T05:56:15;102156.60;;;-1.00
70533;BMP180;58088;51.186;17.130;2022-12-18T05:58:43;102163.80;;;-1.00
70533;BMP180;58088;51.186;17.130;2022-12-18T06:01:17;102170.20;;;-1.00
70533;BMP180;58088;51.186;17.130;2022-12-18T06:03:44;102181.20;;;-1.00
70533;BMP180;58088;51.186;17.130;2022-12-18T06:06:22;102189.80;;;-1.02
70533;BMP180;58088;51.186;17.130;2022-12-18T06:08:50;102187.20;;;-1.10
70533;BMP180;58088;51.186;17.130;2022-12-18T06:11:26;102188.80;;;-1.10
70533;BMP180;58088;51.186;17.130;2022-12-18T06:13:56;102187.60;;;-1.20
70533;BMP180;58088;51.186;17.130;2022-12-18T06:16:22;102190.20;;;-1.20
70533;BMP180;58088;51.186;17.130;2022-12-18T06:18:48;102192.40;;;-1.20
70533;BMP180;58088;51.186;17.130;2022-12-18T06:21:15;102200.20;;;-1.20
70533;BMP180;58088;51.186;17.130;2022-12-18T06:23:41;102204.20;;;-1.10
70533;BMP180;58088;51.186;17.130;2022-12-18T06:26:12;102208.00;;;-1.10
70533;BMP180;58088;51.186;17.130;2022-12-18T06:28:39;102207.40;;;-1.20
70533;BMP180;58088;51.186;17.130;2022-12-18T06:31:07;102220.20;;;-1.20
70533;BMP180;58088;51.186;17.130;2022-12-18T06:33:35;102216.60;;;-1.30
70533;BMP180;58088;51.186;17.130;2022-12-18T06:36:13;102222.60;;;-1.30
70533;BMP180;58088;51.186;17.130;2022-12-18T06:38:42;102228.20;;;-1.40
70533;BMP180;58088;51.186;17.130;2022-12-18T06:41:18;102225.60;;;-1.40
70533;BMP180;58088;51.186;17.130;2022-12-18T06:43:45;102228.60;;;-1.30
70533;BMP180;58088;51.186;17.130;2022-12-18T06:46:12;102233.00;;;-1.30
70533;BMP180;58088;51.186;17.130;2022-12-18T06:48:39;102233.20;;;-1.22
70533;BMP180;58088;51.186;17.130;2022-12-18T06:51:05;102232.60;;;-1.20
70533;BMP180;58088;51.186;17.130;2022-12-18T06:53:32;102237.00;;;-1.20
70533;BMP180;58088;51.186;17.130;2022-12-18T06:56:05;102245.40;;;-1.22
70533;BMP180;58088;51.186;17.130;2022-12-18T06:58:33;102246.80;;;-1.30
70533;BMP180;58088;51.186;17.130;2022-12-18T07:01:01;102248.00;;;-1.28
70533;BMP180;58088;51.186;17.130;2022-12-18T07:03:27;102246.80;;;-1.30
70533;BMP180;58088;51.186;17.130;2022-12-18T07:05:54;102244.00;;;-1.22
70533;BMP180;58088;51.186;17.130;2022-12-18T07:08:20;102245.80;;;-1.20
70533;BMP180;58088;51.186;17.130;2022-12-18T07:10:47;102243.00;;;-1.20
70533;BMP180;58088;51.186;17.130;2022-12-18T07:13:17;102248.60;;;-1.20
70533;BMP180;58088;51.186;17.130;2022-12-18T07:15:44;102252.20;;;-1.20
70533;BMP180;58088;51.186;17.130;2022-12-18T07:18:10;102252.00;;;-1.20
70533;BMP180;58088;51.186;17.130;2022-12-18T07:20:37;102259.60;;;-1.10
70533;BMP180;58088;51.186;17.130;2022-12-18T07:23:04;102260.20;;;-1.12
70533;BMP180;58088;51.186;17.130;2022-12-18T07:25:37;102261.60;;;-1.18
70533;BMP180;58088;51.186;17.130;2022-12-18T07:28:04;102260.20;;;-1.10
70533;BMP180;58088;51.186;17.130;2022-12-18T07:30:30;102269.40;;;-1.10
70533;BMP180;58088;51.186;17.130;2022-12-18T07:32:56;102267.80;;;-1.10
70533;BMP180;58088;51.186;17.130;2022-12-18T07:35:23;102270.60;;;-1.12
70533;BMP180;58088;51.186;17.130;2022-12-18T07:37:49;102275.00;;;-1.20
70533;BMP180;58088;51.186;17.130;2022-12-18T07:40:15;102279.20;;;-1.30
70533;BMP180;58088;51.186;17.130;2022-12-18T07:42:42;102291.80;;;-1.40
70533;BMP180;58088;51.186;17.130;2022-12-18T07:45:09;102288.00;;;-1.40
70533;BMP180;58088;51.186;17.130;2022-12-18T07:47:35;102287.20;;;-1.44
70533;BMP180;58088;51.186;17.130;2022-12-18T07:50:04;102297.60;;;-1.40
70533;BMP180;58088;51.186;17.130;2022-12-18T07:52:31;102294.60;;;-1.30
70533;BMP180;58088;51.186;17.130;2022-12-18T07:54:57;102288.80;;;-1.38
70533;BMP180;58088;51.186;17.130;2022-12-18T07:57:23;102292.20;;;-1.40
70533;BMP180;58088;51.186;17.130;2022-12-18T07:59:50;102288.60;;;-1.40
70533;BMP180;58088;51.186;17.130;2022-12-18T08:02:16;102294.00;;;-1.42
70533;BMP180;58088;51.186;17.130;2022-12-18T08:04:43;102299.20;;;-1.40
70533;BMP180;58088;51.186;17.130;2022-12-18T08:07:09;102300.40;;;-1.40
70533;BMP180;58088;51.186;17.130;2022-12-18T08:09:35;102307.80;;;-1.36
70533;BMP180;58088;51.186;17.130;2022-12-18T08:12:01;102307.20;;;-1.34
70533;BMP180;58088;51.186;17.130;2022-12-18T08:14:28;102309.80;;;-1.30
70533;BMP180;58088;51.186;17.130;2022-12-18T08:16:54;102313.00;;;-1.30
70533;BMP180;58088;51.186;17.130;2022-12-18T08:19:20;102322.60;;;-1.20
70533;BMP180;58088;51.186;17.130;2022-12-18T08:21:47;102327.80;;;-1.30
70533;BMP180;58088;51.186;17.130;2022-12-18T08:24:13;102322.20;;;-1.30
70533;BMP180;58088;51.186;17.130;2022-12-18T08:26:39;102324.80;;;-1.36
70533;BMP180;58088;51.186;17.130;2022-12-18T08:29:05;102330.00;;;-1.36
70533;BMP180;58088;51.186;17.130;2022-12-18T08:31:32;102333.60;;;-1.34
70533;BMP180;58088;51.186;17.130;2022-12-18T08:33:58;102335.40;;;-1.40
70533;BMP180;58088;51.186;17.130;2022-12-18T08:36:25;102337.40;;;-1.50
70533;BMP180;58088;51.186;17.130;2022-12-18T08:38:52;102344.40;;;-1.50
70533;BMP180;58088;51.186;17.130;2022-12-18T08:41:19;102350.60;;;-1.50
70533;BMP180;58088;51.186;17.130;2022-12-18T08:43:46;102351.60;;;-1.50
70533;BMP180;58088;51.186;17.130;2022-12-18T08:46:38;102352.20;;;-1.52
70533;BMP180;58088;51.186;17.130;2022-12-18T08:49:07;102356.20;;;-1.50
70533;BMP180;58088;51.186;17.130;2022-12-18T08:51:34;102357.80;;;-1.50
70533;BMP180;58088;51.186;17.130;2022-12-18T08:54:01;102359.20;;;-1.50
70533;BMP180;58088;51.186;17.130;2022-12-18T08:56:28;102366.60;;;-1.50
70533;BMP180;58088;51.186;17.130;2022-12-18T08:58:56;102363.00;;;-1.44
70533;BMP180;58088;51.186;17.130;2022-12-18T09:01:23;102359.80;;;-1.40
70533;BMP180;58088;51.186;17.130;2022-12-18T09:03:51;102356.60;;;-1.40
70533;BMP180;58088;51.186;17.130;2022-12-18T09:06:19;102354.60;;;-1.40
70533;BMP180;58088;51.186;17.130;2022-12-18T09:08:46;102362.80;;;-1.40
70533;BMP180;58088;51.186;17.130;2022-12-18T09:13:46;102360.60;;;-1.30
70533;BMP180;58088;51.186;17.130;2022-12-18T09:16:13;102358.20;;;-1.40
70533;BMP180;58088;51.186;17.130;2022-12-18T09:18:39;102344.20;;;-1.40
70533;BMP180;58088;51.186;17.130;2022-12-18T09:21:12;102332.00;;;-1.36
70533;BMP180;58088;51.186;17.130;2022-12-18T09:23:39;102325.60;;;-1.36
70533;BMP180;58088;51.186;17.130;2022-12-18T09:26:06;102333.40;;;-1.30
70533;BMP180;58088;51.186;17.130;2022-12-18T09:28:33;102341.00;;;-1.40
70533;BMP180;58088;51.186;17.130;2022-12-18T09:31:05;102333.00;;;-1.50
70533;BMP180;58088;51.186;17.130;2022-12-18T09:33:35;102316.00;;;-1.50
70533;BMP180;58088;51.186;17.130;2022-12-18T09:36:08;102310.00;;;-1.50
70533;BMP180;58088;51.186;17.130;2022-12-18T09:38:35;102312.60;;;-1.40
70533;BMP180;58088;51.186;17.130;2022-12-18T09:43:53;102302.40;;;-1.36
70533;BMP180;58088;51.186;17.130;2022-12-18T09:46:28;102300.40;;;-1.38
70533;BMP180;58088;51.186;17.130;2022-12-18T09:49:01;102299.00;;;-1.30
70533;BMP180;58088;51.186;17.130;2022-12-18T09:52:00;102298.80;;;-1.24
70533;BMP180;58088;51.186;17.130;2022-12-18T09:54:42;102302.80;;;-1.20
70533;BMP180;58088;51.186;17.130;2022-12-18T09:57:23;102305.20;;;-1.20
70533;BMP180;58088;51.186;17.130;2022-12-18T09:59:56;102294.80;;;-1.30
70533;BMP180;58088;51.186;17.130;2022-12-18T10:02:26;102304.00;;;-1.30
70533;BMP180;58088;51.186;17.130;2022-12-18T10:05:10;102302.40;;;-1.28
70533;BMP180;58088;51.186;17.130;2022-12-18T10:27:46;102313.00;;;-1.00
70533;BMP180;58088;51.186;17.130;2022-12-18T10:30:20;102316.00;;;-0.90
70533;BMP180;58088;51.186;17.130;2022-12-18T10:32:47;102315.00;;;-0.90
70533;BMP180;58088;51.186;17.130;2022-12-18T10:35:24;102312.80;;;-0.90
70533;BMP180;58088;51.186;17.130;2022-12-18T10:38:19;102310.60;;;-0.82
70533;BMP180;58088;51.186;17.130;2022-12-18T10:43:37;102304.40;;;-0.86
70533;BMP180;58088;51.186;17.130;2022-12-18T10:48:53;102316.60;;;-0.70
70533;BMP180;58088;51.186;17.130;2022-12-18T10:56:29;102314.60;;;-0.80
70533;BMP180;58088;51.186;17.130;2022-12-18T10:59:06;102308.80;;;-0.94
70533;BMP180;58088;51.186;17.130;2022-12-18T11:01:54;102313.20;;;-0.96
70533;BMP180;58088;51.186;17.130;2022-12-18T11:04:28;102320.00;;;-1.00
70533;BMP180;58088;51.186;17.130;2022-12-18T11:07:02;102323.00;;;-1.00
70533;BMP180;58088;51.186;17.130;2022-12-18T11:09:32;102322.80;;;-1.00
70533;BMP180;58088;51.186;17.130;2022-12-18T11:12:15;102326.80;;;-1.00
70533;BMP180;58088;51.186;17.130;2022-12-18T11:14:49;102325.40;;;-0.94
70533;BMP180;58088;51.186;17.130;2022-12-18T11:17:33;102333.60;;;-1.00
70533;BMP180;58088;51.186;17.130;2022-12-18T11:20:19;102327.60;;;-0.90
70533;BMP180;58088;51.186;17.130;2022-12-18T11:23:10;102332.80;;;-0.84
70533;BMP180;58088;51.186;17.130;2022-12-18T11:25:39;102339.00;;;-0.78
70533;BMP180;58088;51.186;17.130;2022-12-18T11:31:40;102345.40;;;-0.60
70533;BMP180;58088;51.186;17.130;2022-12-18T11:34:31;102339.80;;;-0.60
70533;BMP180;58088;51.186;17.130;2022-12-18T11:37:03;102335.20;;;-0.50
70533;BMP180;58088;51.186;17.130;2022-12-18T11:39:41;102326.60;;;-0.46
70533;BMP180;58088;51.186;17.130;2022-12-18T11:42:18;102333.40;;;-0.50
70533;BMP180;58088;51.186;17.130;2022-12-18T11:44:57;102337.60;;;-0.50
70533;BMP180;58088;51.186;17.130;2022-12-18T11:47:33;102328.00;;;-0.56
70533;BMP180;58088;51.186;17.130;2022-12-18T11:50:02;102322.00;;;-0.60
70533;BMP180;58088;51.186;17.130;2022-12-18T11:52:38;102313.40;;;-0.60
70533;BMP180;58088;51.186;17.130;2022-12-18T11:55:15;102311.80;;;-0.70
70533;BMP180;58088;51.186;17.130;2022-12-18T12:00:18;102311.80;;;-0.80
70533;BMP180;58088;51.186;17.130;2022-12-18T12:08:57;102313.20;;;-1.00
70533;BMP180;58088;51.186;17.130;2022-12-18T12:11:49;102313.60;;;-1.08
70533;BMP180;58088;51.186;17.130;2022-12-18T12:20:12;102306.20;;;-1.10
70533;BMP180;58088;51.186;17.130;2022-12-18T12:22:58;102305.00;;;-1.14
70533;BMP180;58088;51.186;17.130;2022-12-18T12:25:52;102313.00;;;-1.10
70533;BMP180;58088;51.186;17.130;2022-12-18T12:31:52;102305.00;;;-1.10
70533;BMP180;58088;51.186;17.130;2022-12-18T12:34:44;102296.60;;;-1.10
70533;BMP180;58088;51.186;17.130;2022-12-18T12:39:51;102305.80;;;-1.06
70533;BMP180;58088;51.186;17.130;2022-12-18T12:42:42;102306.40;;;-1.00
70533;BMP180;58088;51.186;17.130;2022-12-18T12:45:42;102305.20;;;-1.00
70533;BMP180;58088;51.186;17.130;2022-12-18T12:48:43;102309.40;;;-1.06
70533;BMP180;58088;51.186;17.130;2022-12-18T12:51:35;102315.20;;;-1.10
70533;BMP180;58088;51.186;17.130;2022-12-18T12:54:08;102297.60;;;-1.10
70533;BMP180;58088;51.186;17.130;2022-12-18T12:56:54;102305.00;;;-1.10
70533;BMP180;58088;51.186;17.130;2022-12-18T12:59:47;102299.60;;;-1.00
70533;BMP180;58088;51.186;17.130;2022-12-18T13:02:33;102305.00;;;-1.00
70533;BMP180;58088;51.186;17.130;2022-12-18T13:05:29;102301.20;;;-1.00
70533;BMP180;58088;51.186;17.130;2022-12-18T13:08:06;102301.20;;;-0.90
70533;BMP180;58088;51.186;17.130;2022-12-18T13:10:39;102304.20;;;-0.90
70533;BMP180;58088;51.186;17.130;2022-12-18T13:13:14;102302.20;;;-0.90
70533;BMP180;58088;51.186;17.130;2022-12-18T13:15:49;102302.80;;;-0.90
70533;BMP180;58088;51.186;17.130;2022-12-18T13:18:35;102309.20;;;-0.90
70533;BMP180;58088;51.186;17.130;2022-12-18T13:21:21;102300.40;;;-1.00
70533;BMP180;58088;51.186;17.130;2022-12-18T13:23:50;102299.60;;;-1.00
70533;BMP180;58088;51.186;17.130;2022-12-18T13:36:46;102295.60;;;-1.30
70533;BMP180;58088;51.186;17.130;2022-12-18T13:41:51;102303.80;;;-1.30
70533;BMP180;58088;51.186;17.130;2022-12-18T13:44:40;102309.20;;;-1.30
70533;BMP180;58088;51.186;17.130;2022-12-18T13:47:33;102322.80;;;-1.30
70533;BMP180;58088;51.186;17.130;2022-12-18T13:50:14;102315.80;;;-1.30
70533;BMP180;58088;51.186;17.130;2022-12-18T13:52:44;102323.20;;;-1.40
70533;BMP180;58088;51.186;17.130;2022-12-18T13:55:18;102331.00;;;-1.36
70533;BMP180;58088;51.186;17.130;2022-12-18T13:57:45;102332.80;;;-1.40
70533;BMP180;58088;51.186;17.130;2022-12-18T14:00:29;102334.40;;;-1.38
70533;BMP180;58088;51.186;17.130;2022-12-18T14:02:57;102339.20;;;-1.38
70533;BMP180;58088;51.186;17.130;2022-12-18T14:05:32;102332.60;;;-1.40
70533;BMP180;58088;51.186;17.130;2022-12-18T14:08:14;102336.20;;;-1.40
70533;BMP180;58088;51.186;17.130;2022-12-18T14:10:47;102330.00;;;-1.40
70533;BMP180;58088;51.186;17.130;2022-12-18T14:13:29;102329.80;;;-1.40
70533;BMP180;58088;51.186;17.130;2022-12-18T14:15:57;102341.60;;;-1.40
70533;BMP180;58088;51.186;17.130;2022-12-18T14:19:03;102344.20;;;-1.44
70533;BMP180;58088;51.186;17.130;2022-12-18T14:21:33;102354.00;;;-1.50
70533;BMP180;58088;51.186;17.130;2022-12-18T14:24:19;102358.00;;;-1.50
70533;BMP180;58088;51.186;17.130;2022-12-18T14:26:48;102354.60;;;-1.60
70533;BMP180;58088;51.186;17.130;2022-12-18T14:29:28;102353.20;;;-1.60
70533;BMP180;58088;51.186;17.130;2022-12-18T14:34:32;102361.40;;;-1.70
70533;BMP180;58088;51.186;17.130;2022-12-18T14:36:58;102365.60;;;-1.80
70533;BMP180;58088;51.186;17.130;2022-12-18T14:39:25;102376.80;;;-1.88
70533;BMP180;58088;51.186;17.130;2022-12-18T14:41:52;102375.20;;;-1.90
70533;BMP180;58088;51.186;17.130;2022-12-18T14:44:19;102368.20;;;-1.92
70533;BMP180;58088;51.186;17.130;2022-12-18T14:46:49;102374.40;;;-2.00
70533;BMP180;58088;51.186;17.130;2022-12-18T14:49:35;102373.00;;;-2.04
70533;BMP180;58088;51.186;17.130;2022-12-18T14:52:06;102370.00;;;-2.10
70533;BMP180;58088;51.186;17.130;2022-12-18T14:54:37;102372.40;;;-2.02
70533;BMP180;58088;51.186;17.130;2022-12-18T14:57:22;102380.80;;;-2.04
70533;BMP180;58088;51.186;17.130;2022-12-18T14:59:50;102368.80;;;-2.08
70533;BMP180;58088;51.186;17.130;2022-12-18T15:02:26;102368.60;;;-2.10
70533;BMP180;58088;51.186;17.130;2022-12-18T15:05:27;102378.40;;;-2.12
70533;BMP180;58088;51.186;17.130;2022-12-18T15:07:58;102384.00;;;-2.20
70533;BMP180;58088;51.186;17.130;2022-12-18T15:10:33;102382.60;;;-2.28
70533;BMP180;58088;51.186;17.130;2022-12-18T15:23:23;102377.40;;;-2.50
70533;BMP180;58088;51.186;17.130;2022-12-18T15:26:08;102366.00;;;-2.50
70533;BMP180;58088;51.186;17.130;2022-12-18T15:28:52;102369.40;;;-2.50
70533;BMP180;58088;51.186;17.130;2022-12-18T15:31:35;102373.40;;;-2.50
70533;BMP180;58088;51.186;17.130;2022-12-18T15:34:18;102379.80;;;-2.50
70533;BMP180;58088;51.186;17.130;2022-12-18T15:36:47;102388.80;;;-2.60
70533;BMP180;58088;51.186;17.130;2022-12-18T15:39:14;102383.00;;;-2.60
70533;BMP180;58088;51.186;17.130;2022-12-18T15:41:43;102378.20;;;-2.60
70533;BMP180;58088;51.186;17.130;2022-12-18T15:44:30;102382.20;;;-2.70
70533;BMP180;58088;51.186;17.130;2022-12-18T15:47:00;102375.40;;;-2.68
70533;BMP180;58088;51.186;17.130;2022-12-18T15:49:26;102372.20;;;-2.70
70533;BMP180;58088;51.186;17.130;2022-12-18T15:51:59;102366.40;;;-2.70
70533;BMP180;58088;51.186;17.130;2022-12-18T15:54:26;102352.20;;;-2.70
70533;BMP180;58088;51.186;17.130;2022-12-18T15:57:13;102346.40;;;-2.70
70533;BMP180;58088;51.186;17.130;2022-12-18T15:59:54;102338.40;;;-2.70
70533;BMP180;58088;51.186;17.130;2022-12-18T16:02:25;102338.00;;;-2.70
70533;BMP180;58088;51.186;17.130;2022-12-18T16:04:52;102337.40;;;-2.78
70533;BMP180;58088;51.186;17.130;2022-12-18T16:07:21;102335.80;;;-2.80